Time;durP1;ratioP1;P1;durP2;ratioP2;P2;SDS_P1;SDS_P2;PMS_P1;PMS_P2;Temp;Humidity;BMP_temperature;BMP_pressure;BME280_temperature;BME280_humidity;BME280_pressure;Samples;Min_cycle;Max_cycle;Signal;HPM_P1;HPM_P2
2023/09/27 00:00:57;;;;;;;7.63;6.80;;;;;;;15.39;93.91;101854.72;5047819;28;20033;-63
2023/09/27 00:03:25;;;;;;;8.50;6.97;;;;;;;15.27;94.35;101863.59;5041850;28;20033;-62
2023/09/27 00:05:50;;;;;;;10.93;7.15;;;;;;;15.41;94.28;101863.53;5045179;28;20077;-62
2023/09/27 00:08:15;;;;;;;8.57;7.18;;;;;;;15.35;94.18;101863.06;5042928;28;20416;-62
2023/09/27 00:10:41;;;;;;;7.93;7.15;;;;;;;15.21;94.56;101859.50;5078081;28;20210;-62
2023/09/27 00:13:06;;;;;;;8.60;6.35;;;;;;;15.15;94.86;101861.72;5045134;28;20465;-63
2023/09/27 00:15:32;;;;;;;9.75;6.50;;;;;;;15.07;95.43;101861.38;5044253;28;20074;-63
2023/09/27 00:17:58;;;;;;;8.02;7.00;;;;;;;15.11;95.55;101862.88;5063518;28;20032;-62
2023/09/27 00:20:24;;;;;;;9.52;7.50;;;;;;;15.08;96.34;101855.88;5066229;28;20025;-63
2023/09/27 00:22:51;;;;;;;8.95;6.93;;;;;;;15.16;95.49;101866.97;5049545;28;20029;-63
2023/09/27 00:25:16;;;;;;;9.18;6.55;;;;;;;15.11;95.60;101863.72;5045773;28;20027;-63
2023/09/27 00:27:42;;;;;;;13.98;7.28;;;;;;;15.16;95.67;101864.28;5063903;28;20024;-63
2023/09/27 00:30:13;;;;;;;10.95;7.63;;;;;;;15.12;96.04;101860.09;5062752;28;20024;-62
2023/09/27 00:32:38;;;;;;;10.57;7.82;;;;;;;15.10;96.02;101855.78;5043201;28;20486;-63
2023/09/27 00:35:04;;;;;;;10.48;7.78;;;;;;;15.07;96.62;101861.38;5063849;28;20016;-63
2023/09/27 00:37:33;;;;;;;10.88;7.20;;;;;;;14.99;97.25;101862.69;5039124;28;20033;-63
2023/09/27 00:39:58;;;;;;;12.73;7.80;;;;;;;15.12;96.14;101862.78;5055432;28;20701;-63
2023/09/27 00:42:24;;;;;;;10.05;7.50;;;;;;;15.06;96.17;101832.81;5065184;28;20056;-63
2023/09/27 00:44:52;;;;;;;11.75;8.82;;;;;;;15.08;97.01;101850.53;5061587;28;20488;-63
2023/09/27 00:47:18;;;;;;;10.77;8.13;;;;;;;15.07;96.87;101859.53;5065308;28;20037;-63
2023/09/27 00:49:44;;;;;;;11.10;7.43;;;;;;;15.14;96.67;101854.63;5045699;28;20138;-62
2023/09/27 00:52:09;;;;;;;10.57;7.60;;;;;;;15.07;96.14;101842.59;5042209;28;20027;-63
2023/09/27 00:54:35;;;;;;;11.38;7.82;;;;;;;15.04;96.38;101846.34;5062738;28;20380;-62
2023/09/27 00:57:03;;;;;;;9.73;8.23;;;;;;;15.04;96.17;101846.34;5062981;28;20025;-63
2023/09/27 00:59:29;;;;;;;12.45;8.55;;;;;;;14.85;96.92;101837.78;5063100;28;20387;-63
2023/09/27 01:01:55;;;;;;;13.00;8.55;;;;;;;15.10;96.35;101850.44;5065572;28;20021;-63
2023/09/27 01:04:21;;;;;;;10.85;7.82;;;;;;;14.93;96.75;101846.19;5047927;28;20024;-63
2023/09/27 01:06:47;;;;;;;13.57;8.77;;;;;;;14.96;96.77;101846.84;5046493;28;20359;-63
2023/09/27 01:09:12;;;;;;;9.52;7.72;;;;;;;14.99;96.39;101840.41;5038420;28;20040;-63
2023/09/27 01:11:41;;;;;;;10.63;8.05;;;;;;;14.97;96.49;101847.69;5074182;28;20029;-62
2023/09/27 01:14:06;;;;;;;11.90;8.52;;;;;;;14.98;96.37;101841.38;5063577;28;20047;-63
2023/09/27 01:16:32;;;;;;;16.48;8.52;;;;;;;14.87;96.12;101830.50;5061277;28;20100;-62
2023/09/27 01:19:03;;;;;;;10.05;8.13;;;;;;;14.87;97.01;101844.75;5058073;28;20111;-63
2023/09/27 01:21:29;;;;;;;12.40;8.38;;;;;;;14.94;96.05;101832.69;5062636;28;20028;-62
2023/09/27 01:23:55;;;;;;;12.10;8.38;;;;;;;14.87;95.95;101827.84;5046602;28;20107;-63
2023/09/27 01:26:21;;;;;;;11.07;9.27;;;;;;;14.80;95.66;101813.13;5061603;28;20399;-62
2023/09/27 01:28:46;;;;;;;13.48;8.23;;;;;;;14.89;95.51;101812.53;5066162;28;20168;-63
2023/09/27 01:31:12;;;;;;;10.00;9.15;;;;;;;14.80;95.84;101807.78;5063425;28;20027;-62
2023/09/27 01:33:37;;;;;;;12.15;9.02;;;;;;;14.85;95.83;101814.53;5062401;28;20029;-63
2023/09/27 01:36:03;;;;;;;13.13;9.35;;;;;;;14.74;96.13;101817.06;5044267;28;20024;-63
2023/09/27 01:38:31;;;;;;;9.73;8.23;;;;;;;14.67;95.99;101803.19;5060872;28;20090;-62
2023/09/27 01:40:57;;;;;;;11.40;9.50;;;;;;;14.73;95.73;101802.81;5058049;28;20395;-63
2023/09/27 01:43:22;;;;;;;10.98;8.45;;;;;;;14.69;95.48;101806.66;5063655;28;20024;-63
2023/09/27 01:45:48;;;;;;;8.80;7.95;;;;;;;14.75;95.24;101816.09;5060536;28;20035;-63
2023/09/27 01:48:13;;;;;;;11.75;8.73;;;;;;;14.50;95.28;101806.06;5061799;28;20052;-63
2023/09/27 01:50:39;;;;;;;11.82;8.93;;;;;;;14.59;95.39;101818.94;5060616;28;20025;-63
2023/09/27 01:53:05;;;;;;;10.43;8.30;;;;;;;14.55;95.65;101820.06;5063944;28;20388;-63
2023/09/27 01:55:31;;;;;;;12.85;8.82;;;;;;;14.54;95.50;101821.88;5042372;28;20112;-63
2023/09/27 01:57:57;;;;;;;10.52;8.48;;;;;;;14.58;95.33;101819.88;5064110;28;20028;-63
2023/09/27 02:00:23;;;;;;;10.77;8.68;;;;;;;14.42;95.52;101811.09;5060859;28;20448;-63
2023/09/27 02:02:50;;;;;;;9.30;7.85;;;;;;;14.43;95.94;101821.69;5060898;28;20535;-63
2023/09/27 02:05:16;;;;;;;11.65;8.57;;;;;;;14.39;95.85;101801.44;5063847;28;20094;-63
2023/09/27 02:07:41;;;;;;;9.48;8.50;;;;;;;14.45;95.71;101813.56;5061852;28;20032;-63
2023/09/27 02:10:11;;;;;;;9.65;8.70;;;;;;;14.30;95.87;101808.22;5043628;28;20049;-63
2023/09/27 02:12:39;;;;;;;;;;;;;;;14.63;94.79;101812.41;5060458;28;20028;-63
2023/09/27 02:15:06;;;;;;;9.73;8.63;;;;;;;14.28;95.88;101811.94;5058161;28;20367;-63
2023/09/27 02:17:32;;;;;;;12.25;8.48;;;;;;;14.29;96.13;101809.19;5060607;28;20115;-63
2023/09/27 02:19:58;;;;;;;10.07;8.55;;;;;;;14.07;96.43;101801.63;5042193;28;20029;-63
2023/09/27 02:22:23;;;;;;;11.23;8.65;;;;;;;14.22;96.52;101815.00;5066469;28;20115;-63
2023/09/27 02:24:49;;;;;;;10.20;8.95;;;;;;;14.17;96.21;101817.13;5061309;28;20032;-63
2023/09/27 02:27:17;;;;;;;9.52;8.50;;;;;;;14.17;96.32;101804.59;5064747;28;20462;-63
2023/09/27 02:29:43;;;;;;;9.68;8.68;;;;;;;14.01;96.14;101817.22;5037215;28;20028;-63
2023/09/27 02:32:09;;;;;;;9.93;8.40;;;;;;;14.14;96.03;101826.19;5062700;28;20029;-62
2023/09/27 02:34:37;;;;;;;11.68;8.30;;;;;;;14.10;96.41;101824.66;5060294;28;20021;-63
2023/09/27 02:37:05;;;;;;;8.88;8.07;;;;;;;13.98;96.07;101810.25;5060010;28;20056;-63
2023/09/27 02:39:31;;;;;;;10.70;8.35;;;;;;;14.11;96.16;101820.16;5062715;28;20464;-63
2023/09/27 02:41:57;;;;;;;9.82;8.75;;;;;;;14.06;96.16;101815.97;5061826;28;20067;-63
2023/09/27 02:44:23;;;;;;;8.98;8.15;;;;;;;14.14;95.58;101818.16;5059335;28;20016;-63
2023/09/27 02:46:51;;;;;;;10.52;8.75;;;;;;;13.96;96.61;101812.13;5056088;28;20116;-63
2023/09/27 02:49:16;;;;;;;8.98;8.07;;;;;;;14.05;96.50;101816.06;5058478;28;20492;-63
2023/09/27 02:51:41;;;;;;;11.82;9.27;;;;;;;14.05;96.01;101810.72;5061046;28;20060;-63
2023/09/27 02:54:07;;;;;;;9.98;8.98;;;;;;;14.00;96.08;101818.16;5057266;28;20465;-63
2023/09/27 02:56:32;;;;;;;10.98;9.40;;;;;;;13.99;96.48;101819.13;5036642;28;20602;-63
2023/09/27 02:59:00;;;;;;;11.32;8.80;;;;;;;13.97;96.93;101824.59;5057111;28;20056;-62
2023/09/27 03:01:26;;;;;;;9.57;8.60;;;;;;;14.02;96.49;101821.59;5052714;28;20478;-63
2023/09/27 03:03:51;;;;;;;12.40;8.90;;;;;;;13.93;96.88;101819.50;5052232;28;20060;-63
2023/09/27 03:06:17;;;;;;;11.73;8.52;;;;;;;13.98;96.39;101809.38;5056038;28;20391;-63
2023/09/27 03:08:46;;;;;;;9.57;8.65;;;;;;;13.84;96.62;101810.22;5067660;28;20491;-63
2023/09/27 03:11:12;;;;;;;9.32;8.10;;;;;;;13.89;96.52;101815.31;5063499;28;20020;-63
2023/09/27 03:13:39;;;;;;;9.32;7.75;;;;;;;13.86;96.32;101819.03;5038649;28;20027;-63
2023/09/27 03:16:05;;;;;;;11.77;8.02;;;;;;;13.83;96.53;101827.25;5060119;28;20031;-63
2023/09/27 03:18:32;;;;;;;10.35;8.07;;;;;;;13.88;96.34;101825.13;5051445;28;20087;-63
2023/09/27 03:20:58;;;;;;;9.27;8.38;;;;;;;13.83;96.41;101822.75;5059012;28;20079;-62
2023/09/27 03:23:25;;;;;;;11.88;9.50;;;;;;;13.70;97.93;101820.91;5047050;28;20063;-62
2023/09/27 03:25:51;;;;;;;10.40;9.40;;;;;;;13.75;97.62;101814.31;5038632;28;20032;-63
2023/09/27 03:28:17;;;;;;;11.25;8.80;;;;;;;13.79;96.97;101826.53;5031524;28;20568;-63
2023/09/27 03:30:42;;;;;;;11.98;8.75;;;;;;;13.72;96.61;101825.19;5068259;28;20021;-63
2023/09/27 03:33:08;;;;;;;12.93;8.02;;;;;;;13.79;96.77;101836.38;5049864;28;20361;-62
2023/09/27 03:35:34;;;;;;;11.20;8.73;;;;;;;13.68;97.47;101829.03;5054622;28;20387;-62
2023/09/27 03:37:59;;;;;;;9.68;8.15;;;;;;;13.73;96.89;101836.75;5035318;28;20085;-62
2023/09/27 03:40:25;;;;;;;13.68;8.88;;;;;;;13.68;96.55;101831.69;5055314;28;20454;-63
2023/09/27 03:42:50;;;;;;;10.45;8.48;;;;;;;13.69;96.58;101840.56;5054393;28;20021;-63
2023/09/27 03:45:16;;;;;;;11.02;7.88;;;;;;;13.69;96.61;101853.94;5059846;28;20033;-63
2023/09/27 03:47:45;;;;;;;11.30;8.40;;;;;;;13.60;97.43;101850.00;5052647;28;20049;-63
2023/09/27 03:50:12;;;;;;;13.65;8.55;;;;;;;13.63;97.46;101828.44;5060841;28;20119;-63
2023/09/27 03:52:40;;;;;;;10.48;8.75;;;;;;;13.58;97.98;101807.31;5048368;28;20476;-62
2023/09/27 03:55:07;;;;;;;9.63;8.05;;;;;;;13.58;97.32;101811.81;5035473;28;20047;-64
2023/09/27 03:57:34;;;;;;;10.25;9.25;;;;;;;13.51;97.42;101805.13;5051925;28;20028;-62
2023/09/27 04:00:00;;;;;;;9.70;8.23;;;;;;;13.50;97.29;101808.72;5064057;28;20070;-63
2023/09/27 04:02:26;;;;;;;10.00;9.00;;;;;;;13.51;97.19;101818.50;5050990;28;20151;-63
2023/09/27 04:04:51;;;;;;;11.10;8.80;;;;;;;13.45;97.18;101822.38;5052007;28;20029;-63
2023/09/27 04:07:18;;;;;;;9.93;7.95;;;;;;;13.52;96.71;101838.91;5064489;28;20028;-63
2023/09/27 04:09:47;;;;;;;10.18;8.75;;;;;;;13.48;96.89;101853.41;5049953;28;20037;-63
2023/09/27 04:12:13;;;;;;;9.30;6.43;;;;;;;13.69;96.32;101852.13;5052949;28;20029;-63
2023/09/27 04:14:43;;;;;;;11.25;8.65;;;;;;;13.50;96.61;101863.06;5037178;28;20115;-63
2023/09/27 04:17:08;;;;;;;11.40;9.30;;;;;;;13.47;97.02;101857.91;5054384;28;20087;-63
2023/09/27 04:19:34;;;;;;;13.43;9.60;;;;;;;13.52;97.45;101846.94;5052486;28;20115;-63
2023/09/27 04:22:01;;;;;;;9.73;8.73;;;;;;;13.48;97.47;101846.25;5055095;28;20025;-63
2023/09/27 04:24:27;;;;;;;11.90;8.75;;;;;;;13.47;97.04;101847.22;5059941;28;20476;-63
2023/09/27 04:26:55;;;;;;;13.82;9.23;;;;;;;13.46;96.88;101864.19;5068898;28;20029;-63
2023/09/27 04:29:21;;;;;;;9.23;5.18;;;;;;;13.61;96.20;101868.63;5036431;28;20024;-63
2023/09/27 04:31:46;;;;;;;10.38;8.88;;;;;;;13.45;96.56;101872.31;5052073;28;20032;-63
2023/09/27 04:34:11;;;;;;;11.77;8.63;;;;;;;13.37;96.89;101870.94;5054088;28;20471;-63
2023/09/27 04:36:37;;;;;;;11.93;8.38;;;;;;;13.33;96.86;101876.56;5067719;28;20147;-63
2023/09/27 04:39:07;;;;;;;10.80;8.93;;;;;;;13.36;96.79;101881.72;5054872;28;20438;-63
2023/09/27 04:41:33;;;;;;;7.53;5.90;;;;;;;13.55;96.00;101881.50;5060279;28;20029;-62
2023/09/27 04:43:58;;;;;;;11.43;8.70;;;;;;;13.35;96.81;101878.19;5064541;28;20119;-63
2023/09/27 04:46:24;;;;;;;12.20;8.73;;;;;;;13.14;97.40;101848.19;5036462;28;20380;-63
2023/09/27 04:48:50;;;;;;;10.85;8.95;;;;;;;13.25;97.06;101844.03;5061476;28;20492;-63
2023/09/27 04:51:15;;;;;;;9.80;8.90;;;;;;;13.23;97.35;101836.09;5060383;28;20025;-62
2023/09/27 04:53:41;;;;;;;6.53;5.20;;;;;;;13.42;96.67;101845.75;5070549;28;20098;-63
2023/09/27 04:56:07;;;;;;;12.77;8.77;;;;;;;13.26;97.27;101860.00;5083678;28;20063;-63
2023/09/27 04:58:33;;;;;;;11.48;8.65;;;;;;;13.21;97.44;101866.53;5078607;28;20021;-63
2023/09/27 05:00:59;;;;;;;11.15;9.15;;;;;;;13.22;97.77;101849.56;5037023;28;20140;-63
2023/09/27 05:03:24;;;;;;;10.07;9.07;;;;;;;13.17;98.17;101856.00;5038087;28;20107;-63
2023/09/27 05:05:50;;;;;;;9.13;8.18;;;;;;;13.24;97.52;101866.38;5054589;28;20353;-63
2023/09/27 05:08:15;;;;;;;9.00;7.72;;;;;;;13.15;97.42;101860.59;5043388;28;20503;-62
2023/09/27 05:10:40;;;;;;;9.98;8.40;;;;;;;13.20;97.52;101871.00;5055878;28;20048;-63
2023/09/27 05:13:06;;;;;;;13.00;8.13;;;;;;;13.22;98.07;101857.56;5053712;28;20029;-63
2023/09/27 05:15:34;;;;;;;9.90;8.90;;;;;;;13.16;98.04;101842.75;5061816;28;20025;-62
2023/09/27 05:18:02;;;;;;;10.15;8.23;;;;;;;13.11;98.23;101836.81;5036268;28;20388;-63
2023/09/27 05:20:28;;;;;;;11.02;8.27;;;;;;;13.17;98.10;101839.97;5065891;28;20024;-63
2023/09/27 05:22:53;;;;;;;10.13;9.07;;;;;;;13.12;98.49;101841.22;5047002;28;20024;-63
2023/09/27 05:25:18;;;;;;;11.05;9.18;;;;;;;13.07;98.33;101829.94;5058674;28;20031;-63
2023/09/27 05:27:44;;;;;;;10.27;9.13;;;;;;;13.05;98.32;101834.50;5055221;28;20031;-63
2023/09/27 05:30:13;;;;;;;9.65;8.75;;;;;;;13.07;98.47;101838.81;5041516;28;20025;-63
2023/09/27 05:32:39;;;;;;;12.52;9.18;;;;;;;13.11;98.11;101842.16;5018326;28;20040;-62
2023/09/27 05:35:07;;;;;;;9.73;7.80;;;;;;;13.13;97.67;101848.28;5062417;28;20016;-63
2023/09/27 05:37:35;;;;;;;10.48;8.88;;;;;;;13.05;97.85;101838.03;5050216;28;20032;-63
2023/09/27 05:40:04;;;;;;;10.85;8.70;;;;;;;13.03;98.17;101831.94;5056296;28;20170;-62
2023/09/27 05:42:30;;;;;;;10.82;8.85;;;;;;;12.89;97.95;101830.06;5057212;28;20085;-62
2023/09/27 05:44:56;;;;;;;10.75;9.75;;;;;;;13.02;98.29;101835.53;5038229;28;20025;-63
2023/09/27 05:47:21;;;;;;;9.95;9.00;;;;;;;12.99;98.93;101835.72;5056205;28;20021;-63
2023/09/27 05:49:47;;;;;;;10.52;9.32;;;;;;;12.99;98.39;101826.84;5055650;28;20115;-63
2023/09/27 05:52:13;;;;;;;12.20;9.70;;;;;;;13.03;98.44;101831.06;5061039;28;20504;-63
2023/09/27 05:54:39;;;;;;;6.25;5.65;;;;;;;13.23;97.83;101827.22;5056741;28;20051;-63
2023/09/27 05:57:06;;;;;;;10.25;9.07;;;;;;;12.97;98.60;101818.94;5067726;28;20467;-63
2023/09/27 05:59:35;;;;;;;10.02;9.02;;;;;;;13.03;98.48;101829.25;5049747;28;20036;-63
2023/09/27 06:02:01;;;;;;;12.30;10.02;;;;;;;13.04;98.48;101825.63;5051076;28;20028;-63
2023/09/27 06:04:26;;;;;;;11.18;9.93;;;;;;;13.09;98.76;101833.41;5066039;28;20020;-63
2023/09/27 06:06:52;;;;;;;7.63;6.18;;;;;;;13.25;98.26;101838.69;5053473;28;20065;-63
2023/09/27 06:09:17;;;;;;;10.60;9.30;;;;;;;13.04;99.59;101830.97;5063529;28;20400;-63
2023/09/27 06:11:45;;;;;;;12.38;10.05;;;;;;;13.10;99.53;101821.75;5047730;28;20039;-63
2023/09/27 06:14:10;;;;;;;15.85;10.52;;;;;;;13.10;99.50;101821.75;5058596;28;20024;-63
2023/09/27 06:16:39;;;;;;;12.23;9.95;;;;;;;13.10;99.91;101822.59;5060125;28;20021;-63
2023/09/27 06:19:05;;;;;;;16.45;11.50;;;;;;;13.15;99.83;101820.53;5063530;28;20020;-63
2023/09/27 06:21:32;;;;;;;11.77;10.55;;;;;;;13.25;100.00;101823.56;5040086;28;20028;-63
2023/09/27 06:23:58;;;;;;;10.23;6.53;;;;;;;13.41;99.65;101818.16;5068459;28;20024;-63
2023/09/27 06:26:23;;;;;;;11.82;10.43;;;;;;;13.28;100.00;101810.00;5040728;28;20078;-63
2023/09/27 06:28:49;;;;;;;11.90;10.35;;;;;;;13.36;100.00;101806.91;5060787;28;20056;-63
2023/09/27 06:31:14;;;;;;;11.60;10.27;;;;;;;13.38;100.00;101811.22;5050648;28;20033;-63
2023/09/27 06:33:40;;;;;;;15.18;10.63;;;;;;;13.48;100.00;101803.50;5057885;28;20025;-63
2023/09/27 06:36:09;;;;;;;10.90;9.68;;;;;;;13.51;100.00;101803.31;5068781;28;20089;-63
2023/09/27 06:38:35;;;;;;;9.77;6.30;;;;;;;13.69;100.00;101805.81;5057090;28;20454;-63
2023/09/27 06:41:01;;;;;;;18.98;11.15;;;;;;;13.68;100.00;101810.31;5033347;28;20048;-63
2023/09/27 06:43:28;;;;;;;16.42;11.32;;;;;;;13.62;100.00;101810.69;5061306;28;20095;-63
2023/09/27 06:45:56;;;;;;;19.25;11.55;;;;;;;13.79;100.00;101815.84;5044173;28;20028;-62
2023/09/27 06:48:23;;;;;;;19.33;12.25;;;;;;;13.71;100.00;101790.56;5054134;28;20017;-62
2023/09/27 06:50:49;;;;;;;23.23;12.35;;;;;;;13.94;100.00;101826.56;5051437;28;20102;-62
2023/09/27 06:53:15;;;;;;;22.27;12.80;;;;;;;14.00;100.00;101829.75;5045412;28;21262;-63
2023/09/27 06:55:44;;;;;;;19.38;12.07;;;;;;;14.06;100.00;101832.03;5036981;28;20025;-63
2023/09/27 06:58:09;;;;;;;16.50;12.25;;;;;;;14.16;100.00;101840.34;5058190;28;20395;-63
2023/09/27 07:00:34;;;;;;;25.38;12.45;;;;;;;14.20;100.00;101831.16;5037659;28;20029;-63
2023/09/27 07:03:00;;;;;;;20.55;13.02;;;;;;;14.22;100.00;101823.91;5057307;28;20747;-62
2023/09/27 07:05:28;;;;;;;14.88;12.43;;;;;;;14.26;100.00;101828.09;5058386;28;20082;-62
2023/09/27 07:07:54;;;;;;;13.80;12.18;;;;;;;14.32;100.00;101821.50;5056772;28;20060;-62
2023/09/27 07:10:20;;;;;;;17.75;12.68;;;;;;;14.28;100.00;101804.78;5051644;28;20056;-63
2023/09/27 07:12:48;;;;;;;20.45;11.55;;;;;;;14.39;100.00;101820.16;5046971;28;20531;-62
2023/09/27 07:15:14;;;;;;;16.97;11.87;;;;;;;14.40;100.00;101819.19;5064894;28;20055;-63
2023/09/27 07:17:44;;;;;;;17.05;11.15;;;;;;;14.44;100.00;101823.41;5046192;28;20837;-63
2023/09/27 07:20:34;;;;;;;12.32;10.80;;;;;;;14.39;100.00;101827.34;5052808;28;20029;-63
2023/09/27 07:22:59;;;;;;;16.60;11.25;;;;;;;14.49;100.00;101831.13;5039174;28;20037;-63
2023/09/27 07:25:28;;;;;;;17.27;11.65;;;;;;;14.49;100.00;101836.50;5047540;28;20028;-63
2023/09/27 07:27:54;;;;;;;13.30;11.68;;;;;;;14.51;100.00;101838.16;5053275;28;20041;-63
2023/09/27 07:30:29;;;;;;;14.63;11.05;;;;;;;14.38;100.00;101823.78;5063707;28;20100;-62
2023/09/27 07:32:55;;;;;;;17.17;12.65;;;;;;;14.44;100.00;101828.78;5057955;28;20063;-62
2023/09/27 07:35:21;;;;;;;17.88;12.63;;;;;;;14.49;100.00;101841.84;5050807;28;20020;-63
2023/09/27 07:37:47;;;;;;;13.18;11.68;;;;;;;14.50;100.00;101838.19;5055161;28;20102;-63
2023/09/27 07:40:14;;;;;;;13.15;11.43;;;;;;;14.53;100.00;101833.56;5041068;28;20025;-63
2023/09/27 07:42:44;;;;;;;13.65;12.10;;;;;;;14.60;100.00;101830.50;5061502;28;20486;-63
2023/09/27 07:45:21;;;;;;;12.88;11.50;;;;;;;14.59;100.00;101837.66;5063126;28;20040;-63
2023/09/27 07:47:51;;;;;;;15.32;12.20;;;;;;;14.57;100.00;101810.13;5079834;28;20036;-63
2023/09/27 07:50:18;;;;;;;13.90;12.50;;;;;;;14.71;100.00;101822.63;5037472;28;20129;-63
2023/09/27 07:52:43;;;;;;;17.13;12.60;;;;;;;14.76;100.00;101834.75;5082563;28;20427;-63
2023/09/27 07:55:12;;;;;;;16.67;12.95;;;;;;;14.80;100.00;101842.59;5053691;28;20012;-63
2023/09/27 07:57:37;;;;;;;23.30;12.65;;;;;;;14.86;100.00;101845.72;5068288;28;20108;-63
2023/09/27 08:00:08;;;;;;;14.00;12.70;;;;;;;14.88;100.00;101835.78;5047906;28;20108;-63
2023/09/27 08:02:34;;;;;;;18.77;12.45;;;;;;;15.04;100.00;101846.34;5049547;28;20410;-63
2023/09/27 08:05:02;;;;;;;19.50;12.52;;;;;;;15.11;100.00;101852.16;5043916;28;20111;-63
2023/09/27 08:07:27;;;;;;;15.27;12.68;;;;;;;15.14;100.00;101847.44;5054421;28;20029;-63
2023/09/27 08:09:53;;;;;;;17.42;12.88;;;;;;;15.27;100.00;101843.97;5043054;28;20048;-63
2023/09/27 08:12:20;;;;;;;17.85;13.40;;;;;;;15.33;100.00;101852.44;5057440;28;20029;-62
2023/09/27 08:14:45;;;;;;;19.08;12.13;;;;;;;15.48;100.00;101853.25;5053635;28;20021;-63
2023/09/27 08:17:11;;;;;;;15.48;13.32;;;;;;;15.50;100.00;101845.97;5055422;28;20029;-63
2023/09/27 08:19:38;;;;;;;17.75;13.48;;;;;;;15.59;100.00;101848.00;5057614;28;20029;-63
2023/09/27 08:22:03;;;;;;;15.05;13.02;;;;;;;15.75;99.90;101857.72;5053108;28;20036;-62
2023/09/27 08:24:29;;;;;;;16.92;13.10;;;;;;;15.95;99.29;101865.25;5037601;28;20024;-63
2023/09/27 08:26:54;;;;;;;13.98;12.40;;;;;;;16.01;99.79;101872.88;5059421;28;20456;-62
2023/09/27 08:29:21;;;;;;;17.13;12.40;;;;;;;16.15;99.83;101866.53;5072171;28;20078;-62
2023/09/27 08:31:49;;;;;;;15.32;11.75;;;;;;;16.39;97.75;101869.31;5074739;28;20040;-63
2023/09/27 08:34:15;;;;;;;13.68;11.43;;;;;;;16.49;97.63;101851.56;5055295;28;20056;-63
2023/09/27 08:36:40;;;;;;;19.08;12.48;;;;;;;16.72;96.85;101866.00;5054100;28;20086;-62
2023/09/27 08:39:05;;;;;;;15.57;11.45;;;;;;;16.92;95.34;101867.28;5048982;28;20558;-62
2023/09/27 08:41:31;;;;;;;13.82;10.90;;;;;;;17.00;93.34;101874.75;5054515;28;20029;-62
2023/09/27 08:43:57;;;;;;;13.52;11.18;;;;;;;17.03;93.03;101874.56;5036391;28;20384;-63
2023/09/27 08:46:24;;;;;;;12.00;10.70;;;;;;;17.17;92.21;101869.00;5054304;28;20419;-63
2023/09/27 08:48:55;;;;;;;12.25;10.70;;;;;;;17.21;91.03;101856.22;5060253;28;20028;-63
2023/09/27 08:51:22;;;;;;;13.65;11.05;;;;;;;17.22;90.42;101857.91;5074269;28;20107;-63
2023/09/27 08:53:47;;;;;;;13.45;10.82;;;;;;;17.37;90.10;101856.75;5073901;28;20086;-62
2023/09/27 08:56:16;;;;;;;18.70;11.75;;;;;;;17.43;89.79;101853.59;5074412;28;20016;-62
2023/09/27 08:58:44;;;;;;;19.38;11.20;;;;;;;17.59;90.82;101852.41;5054320;28;20375;-62
2023/09/27 09:01:10;;;;;;;16.47;11.43;;;;;;;17.88;88.94;101847.50;5074306;28;20021;-63
2023/09/27 09:03:37;;;;;;;20.15;13.25;;;;;;;18.12;87.41;101858.22;5073942;28;20031;-63
2023/09/27 09:06:05;;;;;;;16.85;12.40;;;;;;;18.28;86.44;101852.44;5073997;28;20061;-63
2023/09/27 09:08:30;;;;;;;16.98;11.15;;;;;;;18.36;85.45;101858.09;5067863;28;20048;-62
2023/09/27 09:10:56;;;;;;;14.82;11.00;;;;;;;18.33;86.37;101844.88;5068449;28;20032;-63
2023/09/27 09:13:22;;;;;;;10.52;9.25;;;;;;;18.28;86.52;101838.97;5055310;28;20029;-63
2023/09/27 09:15:48;;;;;;;13.32;9.07;;;;;;;18.29;88.78;101836.16;5073829;28;20028;-63
2023/09/27 09:18:29;;;;;;;11.55;9.32;;;;;;;18.38;86.28;101839.94;5073527;28;20025;-63
2023/09/27 09:20:59;;;;;;;10.95;8.52;;;;;;;18.44;86.65;101850.22;5071853;28;20064;-63
2023/09/27 09:23:30;;;;;;;11.15;9.07;;;;;;;18.38;85.45;101846.22;5072905;28;20035;-63
2023/09/27 09:25:56;;;;;;;11.60;9.88;;;;;;;18.31;86.73;101839.59;5055380;28;20395;-63
2023/09/27 09:28:22;;;;;;;11.02;9.13;;;;;;;18.38;86.67;101839.94;5071555;28;20055;-64
2023/09/27 09:30:47;;;;;;;10.98;9.80;;;;;;;18.45;84.58;101837.63;5055463;28;20569;-63
2023/09/27 09:33:18;;;;;;;15.10;10.43;;;;;;;18.48;84.16;101838.25;5073621;28;20442;-63
2023/09/27 09:35:43;;;;;;;12.57;10.18;;;;;;;18.46;85.43;101833.97;5055596;28;20020;-62
2023/09/27 09:38:09;;;;;;;15.43;9.93;;;;;;;18.41;84.33;101833.47;5073422;28;20021;-63
2023/09/27 09:40:54;;;;;;;11.55;9.88;;;;;;;18.32;84.74;101810.81;5071565;28;20035;-63
2023/09/27 09:43:36;;;;;;;10.82;9.73;;;;;;;18.45;85.43;101818.78;5055137;28;20036;-63
2023/09/27 09:46:10;;;;;;;15.10;9.60;;;;;;;18.55;84.16;101819.72;5073367;28;20056;-63
2023/09/27 09:48:38;;;;;;;13.68;9.95;;;;;;;18.63;84.85;101809.19;5041485;28;20059;-62
2023/09/27 09:51:06;;;;;;;14.00;9.43;;;;;;;18.82;82.98;101811.25;5054266;28;20028;-63
2023/09/27 09:53:41;;;;;;;11.33;8.67;;;;;;;19.10;81.46;101803.56;5052499;28;20078;-63
2023/09/27 09:56:10;;;;;;;10.98;9.48;;;;;;;19.24;81.79;101804.13;5052890;28;20263;-63
2023/09/27 09:58:51;;;;;;;15.93;9.85;;;;;;;19.43;79.70;101813.34;5057386;28;20361;-63
2023/09/27 10:01:21;;;;;;;11.38;10.00;;;;;;;19.51;78.39;101805.47;5072967;28;20514;-63
2023/09/27 10:03:49;;;;;;;12.65;10.55;;;;;;;19.73;79.48;101796.38;5072876;28;20036;-63
2023/09/27 10:06:22;;;;;;;12.00;9.60;;;;;;;19.96;77.72;101795.22;5072683;28;20074;-63
2023/09/27 10:08:49;;;;;;;10.10;9.10;;;;;;;20.24;77.03;101783.84;5068407;28;20302;-62
2023/09/27 10:11:15;;;;;;;9.82;8.85;;;;;;;20.17;76.07;101788.94;5034921;28;20048;-63
2023/09/27 10:13:41;;;;;;;11.50;9.10;;;;;;;20.19;75.87;101786.94;5034779;28;20024;-63
2023/09/27 10:16:11;;;;;;;9.63;8.73;;;;;;;20.22;75.15;101793.94;5052679;28;20016;-63
2023/09/27 10:18:41;;;;;;;12.30;9.18;;;;;;;20.36;72.86;101799.81;5040938;28;20033;-63
2023/09/27 10:21:09;;;;;;;9.90;8.63;;;;;;;20.43;72.91;101810.91;5072705;28;20017;-63
2023/09/27 10:23:44;;;;;;;10.32;9.25;;;;;;;20.58;71.52;101803.31;5071673;28;20047;-63
2023/09/27 10:26:27;;;;;;;13.27;8.35;;;;;;;20.82;71.89;101795.69;5056019;28;20039;-62
2023/09/27 10:29:13;;;;;;;11.70;8.82;;;;;;;20.98;71.45;101788.88;5070509;28;20463;-62
2023/09/27 10:31:54;;;;;;;10.73;7.95;;;;;;;20.97;72.86;101770.91;5072415;28;20028;-62
2023/09/27 10:34:25;;;;;;;10.40;8.25;;;;;;;21.10;70.69;101774.19;5071546;28;20024;-63
2023/09/27 10:36:54;;;;;;;9.68;8.55;;;;;;;21.03;68.08;101779.34;5054327;28;20430;-63
2023/09/27 10:39:20;;;;;;;9.38;8.25;;;;;;;21.18;69.37;101782.47;5055973;28;20032;-63
2023/09/27 10:41:46;;;;;;;12.50;8.02;;;;;;;21.25;67.72;101780.03;5052149;28;20025;-63
2023/09/27 10:44:28;;;;;;;13.00;8.93;;;;;;;21.51;68.45;101773.03;5052333;28;20044;-63
2023/09/27 10:46:54;;;;;;;10.60;8.73;;;;;;;21.53;67.48;101757.53;5034194;28;20028;-63
2023/09/27 10:49:20;;;;;;;12.40;8.57;;;;;;;21.67;67.24;101766.16;5053039;28;20372;-63
2023/09/27 10:51:45;;;;;;;12.30;8.57;;;;;;;21.68;66.50;101760.63;5034285;28;20025;-63
2023/09/27 10:54:11;;;;;;;10.70;6.97;;;;;;;21.87;66.10;101748.00;5051177;28;20028;-63
2023/09/27 10:56:41;;;;;;;10.00;6.88;;;;;;;21.95;65.55;101742.69;5052090;28;20495;-63
2023/09/27 10:59:07;;;;;;;10.15;7.15;;;;;;;21.98;63.71;101743.25;5066974;28;20032;-63
2023/09/27 11:01:33;;;;;;;9.30;6.38;;;;;;;22.13;66.55;101732.75;5053976;28;20339;-63
2023/09/27 11:04:03;;;;;;;9.77;7.30;;;;;;;22.21;64.12;101737.47;5071775;28;20025;-63
2023/09/27 11:06:31;;;;;;;8.18;6.88;;;;;;;22.18;62.59;101735.91;5071507;28;20069;-63
2023/09/27 11:09:07;;;;;;;8.15;6.13;;;;;;;22.07;64.82;101732.53;5051329;28;20465;-62
2023/09/27 11:11:33;;;;;;;8.95;6.25;;;;;;;21.92;67.21;101729.44;5071800;28;20110;-63
2023/09/27 11:13:59;;;;;;;8.63;6.38;;;;;;;21.88;64.41;101728.03;5071698;28;20040;-63
2023/09/27 11:16:24;;;;;;;10.10;6.57;;;;;;;21.82;63.88;101725.91;5053625;28;20008;-63